Time;durP1;ratioP1;P1;durP2;ratioP2;P2;SDS_P1;SDS_P2;PMS_P1;PMS_P2;Temp;Humidity;BMP_temperature;BMP_pressure;BME280_temperature;BME280_humidity;BME280_pressure;Samples;Min_cycle;Max_cycle;Signal;HPM_P1;HPM_P2
2022/10/08 00:00:57;;;;;;;2.33;1.10;;;;;;;;;;5036224;28;20571;-57
2022/10/08 00:03:24;;;;;;;1.33;0.90;;;;;;;;;;5041274;28;20123;-57
2022/10/08 00:05:58;;;;;;;1.70;0.90;;;;;;;;;;5041727;28;20037;-57
2022/10/08 00:08:24;;;;;;;5.10;1.35;;;;;;;;;;5040486;28;20461;-57
2022/10/08 00:10:54;;;;;;;4.13;1.15;;;;;;;;;;5042901;28;20075;-56
2022/10/08 00:13:21;;;;;;;3.50;1.60;;;;;;;;;;5037975;28;20087;-57
2022/10/08 00:15:47;;;;;;;2.67;1.30;;;;;;;;;;5042954;28;20498;-57
2022/10/08 00:18:13;;;;;;;2.05;1.30;;;;;;;;;;5038356;28;20053;-57
2022/10/08 00:20:39;;;;;;;1.88;1.33;;;;;;;;;;5038866;28;20082;-57
2022/10/08 00:23:05;;;;;;;2.03;1.02;;;;;;;;;;5039429;28;20369;-56
2022/10/08 00:25:31;;;;;;;2.58;1.40;;;;;;;;;;5039265;28;20045;-57
2022/10/08 00:27:57;;;;;;;2.00;0.85;;;;;;;;;;5039658;28;20124;-57
2022/10/08 00:30:23;;;;;;;4.45;1.08;;;;;;;;;;5037970;28;20046;-56
2022/10/08 00:32:49;;;;;;;4.93;0.95;;;;;;;;;;5039948;28;20037;-57
2022/10/08 00:35:15;;;;;;;2.92;1.05;;;;;;;;;;5037615;28;20502;-57
2022/10/08 00:37:41;;;;;;;1.05;0.90;;;;;;;;;;5037888;28;20041;-57
2022/10/08 00:40:07;;;;;;;2.42;0.90;;;;;;;;;;5037566;28;20061;-56
2022/10/08 00:42:33;;;;;;;1.00;0.77;;;;;;;;;;5038264;28;20037;-57
2022/10/08 00:45:00;;;;;;;1.23;0.77;;;;;;;;;;5038841;28;20048;-57
2022/10/08 00:47:33;;;;;;;2.35;0.98;;;;;;;;;;5039355;28;20434;-57
2022/10/08 00:50:11;;;;;;;0.57;0.57;;;;;;;;;;5037640;28;20051;-56
2022/10/08 00:52:40;;;;;;;3.28;0.70;;;;;;;;;;5040885;28;20052;-56
2022/10/08 00:55:07;;;;;;;1.83;0.90;;;;;;;;;;5038802;28;20045;-56
2022/10/08 00:57:34;;;;;;;1.88;0.90;;;;;;;;;;5035542;28;20131;-57
2022/10/08 01:00:08;;;;;;;1.60;0.85;;;;;;;;;;5038049;28;20084;-56
2022/10/08 01:02:34;;;;;;;2.22;0.90;;;;;;;;;;5038708;28;20064;-57
2022/10/08 01:05:01;;;;;;;2.55;0.90;;;;;;;;;;5038832;28;20045;-56
2022/10/08 01:07:31;;;;;;;5.93;1.23;;;;;;;;;;5038672;28;20049;-56
2022/10/08 01:10:04;;;;;;;2.47;0.93;;;;;;;;;;5038786;28;20063;-57
2022/10/08 01:12:43;;;;;;;0.98;0.63;;;;;;;;;;5040070;28;20557;-56
2022/10/08 01:15:24;;;;;;;1.13;0.65;;;;;;;;;;5036003;28;20052;-57
2022/10/08 01:17:59;;;;;;;1.33;0.65;;;;;;;;;;5037569;28;20140;-56
2022/10/08 01:20:28;;;;;;;1.00;0.70;;;;;;;;;;5035048;28;20047;-56
2022/10/08 01:23:13;;;;;;;1.95;0.65;;;;;;;;;;5037753;28;20529;-57
2022/10/08 01:25:48;;;;;;;2.20;1.08;;;;;;;;;;5042362;28;20091;-56
2022/10/08 01:28:14;;;;;;;1.45;0.70;;;;;;;;;;5034833;28;20059;-56
2022/10/08 01:30:44;;;;;;;1.05;0.70;;;;;;;;;;5040364;28;20048;-57
2022/10/08 01:33:17;;;;;;;0.40;0.30;;;;;;;;;;5035748;28;20384;-57
2022/10/08 01:35:45;;;;;;;4.32;1.02;;;;;;;;;;5039549;28;20411;-55
2022/10/08 01:38:14;;;;;;;2.17;0.77;;;;;;;;;;5037335;28;20045;-57
2022/10/08 01:40:41;;;;;;;1.83;0.80;;;;;;;;;;5035757;28;20056;-56
2022/10/08 01:43:09;;;;;;;2.15;0.88;;;;;;;;;;5035086;28;20567;-57
2022/10/08 01:45:39;;;;;;;0.50;0.40;;;;;;;;;;5036039;28;20059;-57
2022/10/08 01:48:07;;;;;;;2.30;0.68;;;;;;;;;;5032024;28;20072;-56
2022/10/08 01:50:35;;;;;;;0.70;0.40;;;;;;;;;;5035949;28;20041;-57
2022/10/08 01:53:04;;;;;;;0.88;0.47;;;;;;;;;;5038980;28;20057;-57
2022/10/08 01:55:40;;;;;;;0.30;0.30;;;;;;;;;;5037084;28;20714;-57
2022/10/08 01:58:08;;;;;;;0.82;0.47;;;;;;;;;;5041114;28;20055;-57
2022/10/08 02:00:35;;;;;;;0.88;0.50;;;;;;;;;;5035674;28;20057;-57
2022/10/08 02:03:01;;;;;;;1.42;0.50;;;;;;;;;;5042076;28;20045;-56
2022/10/08 02:05:29;;;;;;;1.33;0.50;;;;;;;;;;5039001;28;20080;-56
2022/10/08 02:07:55;;;;;;;0.80;0.38;;;;;;;;;;5039181;28;20099;-56
2022/10/08 02:10:22;;;;;;;0.88;0.47;;;;;;;;;;5030442;28;20048;-56
2022/10/08 02:12:48;;;;;;;2.00;0.60;;;;;;;;;;5038037;28;20496;-56
2022/10/08 02:15:22;;;;;;;1.13;0.40;;;;;;;;;;5036983;28;20053;-56
2022/10/08 02:18:06;;;;;;;0.40;0.40;;;;;;;;;;5039310;28;20045;-56
2022/10/08 02:20:37;;;;;;;1.95;0.50;;;;;;;;;;5037478;28;20045;-56
2022/10/08 02:23:25;;;;;;;1.15;0.50;;;;;;;;;;5037730;28;20045;-56
2022/10/08 02:25:53;;;;;;;1.65;0.57;;;;;;;;;;5037516;28;20045;-56
2022/10/08 02:28:28;;;;;;;1.15;0.50;;;;;;;;;;5035989;28;20041;-56
2022/10/08 02:30:57;;;;;;;0.88;0.50;;;;;;;;;;5037930;28;20386;-56
2022/10/08 02:33:46;;;;;;;1.05;0.60;;;;;;;;;;5037814;28;20033;-56
2022/10/08 02:36:14;;;;;;;0.80;0.50;;;;;;;;;;5034368;28;20156;-56
2022/10/08 02:38:50;;;;;;;1.73;0.60;;;;;;;;;;5034128;28;20091;-56
2022/10/08 02:41:16;;;;;;;0.50;0.43;;;;;;;;;;5034509;28;20048;-56
2022/10/08 02:43:45;;;;;;;0.60;0.60;;;;;;;;;;5037856;28;20041;-57
2022/10/08 02:46:22;;;;;;;2.53;0.70;;;;;;;;;;5033746;28;20049;-57
2022/10/08 02:48:55;;;;;;;2.33;0.95;;;;;;;;;;5037561;28;20076;-56
2022/10/08 02:51:21;;;;;;;1.98;0.80;;;;;;;;;;5035460;28;20091;-57
2022/10/08 02:53:48;;;;;;;1.38;0.65;;;;;;;;;;5034449;28;20439;-57
2022/10/08 02:56:21;;;;;;;3.00;0.90;;;;;;;;;;5034762;28;20443;-56
2022/10/08 02:58:47;;;;;;;;;;;;;;;;;;5035546;28;20008;-57
2022/10/08 03:01:13;;;;;;;;;;;;;;;;;;5037289;28;20023;-57
2022/10/08 03:03:39;;;;;;;;;;;;;;;;;;5040056;28;20059;-56
2022/10/08 03:06:05;;;;;;;;;;;;;;;;;;5033913;28;19925;-56
2022/10/08 03:08:31;;;;;;;;;;;;;;;;;;5033950;28;19932;-56
2022/10/08 03:10:56;;;;;;;;;;;;;;;;;;5035238;28;19969;-57
2022/10/08 03:13:22;;;;;;;;;;;;;;;;;;5036086;28;20035;-56
2022/10/08 03:15:48;;;;;;;;;;;;;;;;;;5035159;28;20277;-56
2022/10/08 03:18:14;;;;;;;;;;;;;;;;;;5035353;28;19925;-56
2022/10/08 03:20:40;;;;;;;;;;;;;;;;;;5035579;28;19932;-56
2022/10/08 03:23:06;;;;;;;;;;;;;;;;;;5033221;28;20631;-57
2022/10/08 03:25:32;;;;;;;;;;;;;;;;;;5035612;28;19936;-57
2022/10/08 03:27:58;;;;;;;;;;;;;;;;;;5032918;28;19951;-57
2022/10/08 03:30:24;;;;;;;;;;;;;;;;;;5032254;28;20012;-57
2022/10/08 03:32:49;;;;;;;;;;;;;;;;;;5034703;28;19979;-56
2022/10/08 03:35:15;;;;;;;;;;;;;;;;;;5032426;28;20300;-56
2022/10/08 03:37:41;;;;;;;;;;;;;;;;;;5037060;28;19933;-57
2022/10/08 03:40:07;;;;;;;;;;;;;;;;;;5032772;28;19929;-56
2022/10/08 03:42:33;;;;;;;;;;;;;;;;;;5033509;28;19929;-56
2022/10/08 03:45:00;;;;;;;;;;;;;;;;;;5039068;28;19940;-56
2022/10/08 03:47:26;;;;;;;;;;;;;;;;;;5032742;28;19940;-56
2022/10/08 03:49:52;;;;;;;;;;;;;;;;;;5037169;28;19932;-56
2022/10/08 03:52:18;;;;;;;;;;;;;;;;;;5034831;28;20067;-57
2022/10/08 03:54:43;;;;;;;;;;;;;;;;;;5034295;28;20288;-55
2022/10/08 03:57:09;;;;;;;;;;;;;;;;;;5035816;28;19925;-57
2022/10/08 03:59:35;;;;;;;;;;;;;;;;;;5034237;28;19932;-57
2022/10/08 04:02:01;;;;;;;;;;;;;;;;;;5036082;28;19929;-57
2022/10/08 04:04:27;;;;;;;;;;;;;;;;;;5036818;28;19929;-56
2022/10/08 04:06:53;;;;;;;;;;;;;;;;;;5036231;28;19929;-56
2022/10/08 04:09:19;;;;;;;;;;;;;;;;;;5034315;28;19932;-56
2022/10/08 04:11:45;;;;;;;;;;;;;;;;;;5040536;28;20384;-56
2022/10/08 04:14:11;;;;;;;;;;;;;;;;;;5036468;28;20018;-57
2022/10/08 04:16:36;;;;;;;;;;;;;;;;;;5037514;28;19935;-56
2022/10/08 04:19:02;;;;;;;;;;;;;;;;;;5038796;28;19933;-56
2022/10/08 04:21:28;;;;;;;;;;;;;;;;;;5037493;28;19988;-56
2022/10/08 04:23:54;;;;;;;;;;;;;;;;;;5042951;28;20334;-56
2022/10/08 04:26:20;;;;;;;;;;;;;;;;;;5040050;28;20051;-57
2022/10/08 04:28:46;;;;;;;;;;;;;;;;;;5039039;28;19981;-57
2022/10/08 04:31:12;;;;;;;;;;;;;;;;;;5038624;28;19952;-57
2022/10/08 04:33:38;;;;;;;;;;;;;;;;;;5038081;28;20071;-56
2022/10/08 04:36:04;;;;;;;;;;;;;;;;;;5041630;28;19929;-56
2022/10/08 04:38:30;;;;;;;;;;;;;;;;;;5037799;28;19972;-56
2022/10/08 04:40:56;;;;;;;;;;;;;;;;;;5041802;28;20644;-57
2022/10/08 04:43:22;;;;;;;;;;;;;;;;;;5039636;28;19929;-56
2022/10/08 04:45:48;;;;;;;;;;;;;;;;;;5039811;28;19941;-56
2022/10/08 04:48:14;;;;;;;;;;;;;;;;;;5040673;28;19951;-56
2022/10/08 04:50:40;;;;;;;1.15;0.52;;;;;;;;;;5035824;28;20015;-56
2022/10/08 04:53:06;;;;;;;0.82;0.65;;;;;;;;;;5040285;28;20567;-56
2022/10/08 04:55:32;;;;;;;1.05;0.50;;;;;;;;;;5042976;28;20051;-56
2022/10/08 04:57:58;;;;;;;0.63;0.40;;;;;;;;;;5034900;28;20586;-56
2022/10/08 05:00:24;;;;;;;3.53;1.00;;;;;;;;;;5038137;28;20148;-56
2022/10/08 05:02:50;;;;;;;2.08;1.10;;;;;;;;;;5041354;28;20450;-56
2022/10/08 05:05:16;;;;;;;1.63;0.47;;;;;;;;;;5037699;28;20096;-56
2022/10/08 05:07:43;;;;;;;2.60;0.82;;;;;;;;;;5038840;28;20111;-56
2022/10/08 05:10:09;;;;;;;2.38;0.60;;;;;;;;;;5036362;28;20057;-56
2022/10/08 05:12:35;;;;;;;3.17;0.95;;;;;;;;;;5037066;28;20044;-57
2022/10/08 05:15:01;;;;;;;4.47;1.30;;;;;;;;;;5038204;28;20480;-56
2022/10/08 05:17:27;;;;;;;2.90;0.85;;;;;;;;;;5041027;28;20041;-57
2022/10/08 05:19:53;;;;;;;2.58;0.80;;;;;;;;;;5039345;28;20404;-56
2022/10/08 05:22:18;;;;;;;;;;;;;;;;;;5035338;28;19925;-56
2022/10/08 05:24:44;;;;;;;;;;;;;;;;;;5044443;28;20016;-57
2022/10/08 05:27:10;;;;;;;;;;;;;;;;;;5036166;28;19921;-56
2022/10/08 05:29:36;;;;;;;;;;;;;;;;;;5038150;28;19943;-56
2022/10/08 05:32:02;;;;;;;;;;;;;;;;;;5041599;28;19928;-56
2022/10/08 05:34:28;;;;;;;;;;;;;;;;;;5037073;28;19925;-56
2022/10/08 05:36:54;;;;;;;;;;;;;;;;;;5042095;28;19928;-57
2022/10/08 05:39:20;;;;;;;;;;;;;;;;;;5038381;28;20313;-56
2022/10/08 05:41:46;;;;;;;;;;;;;;;;;;5034638;28;19921;-57
2022/10/08 05:44:11;;;;;;;;;;;;;;;;;;5038238;28;19928;-57
2022/10/08 05:46:37;;;;;;;;;;;;;;;;;;5038478;28;20403;-57
2022/10/08 05:49:03;;;;;;;;;;;;;;;;;;5043848;28;20288;-57
2022/10/08 05:51:29;;;;;;;;;;;;;;;;;;5036454;28;19943;-57
2022/10/08 05:53:55;;;;;;;;;;;;;;;;;;5032255;28;19928;-57
2022/10/08 05:56:21;;;;;;;;;;;;;;;;;;5035930;28;19921;-57
2022/10/08 05:58:47;;;;;;;;;;;;;;;;;;5038970;28;19931;-56
2022/10/08 06:01:13;;;;;;;;;;;;;;;;;;5035971;28;20652;-57
2022/10/08 06:03:39;;;;;;;;;;;;;;;;;;5045086;28;19955;-56
2022/10/08 06:06:05;;;;;;;;;;;;;;;;;;5040113;28;19925;-56
2022/10/08 06:08:31;;;;;;;;;;;;;;;;;;5034548;28;20314;-57
2022/10/08 06:10:57;;;;;;;;;;;;;;;;;;5040495;28;19925;-57
2022/10/08 06:13:22;;;;;;;;;;;;;;;;;;5037528;28;19929;-56
2022/10/08 06:15:48;;;;;;;;;;;;;;;;;;5040532;28;20331;-56
2022/10/08 06:18:14;;;;;;;;;;;;;;;;;;5037689;28;19924;-57
2022/10/08 06:20:40;;;;;;;;;;;;;;;;;;5036088;28;20054;-56
2022/10/08 06:23:06;;;;;;;;;;;;;;;;;;5037859;28;20040;-56
2022/10/08 06:25:32;;;;;;;;;;;;;;;;;;5032520;28;19931;-56
2022/10/08 06:27:58;;;;;;;;;;;;;;;;;;5037710;28;19929;-56
2022/10/08 06:30:24;;;;;;;;;;;;;;;;;;5039201;28;20326;-57
2022/10/08 06:32:50;;;;;;;;;;;;;;;;;;5040999;28;19966;-57
2022/10/08 06:35:15;;;;;;;;;;;;;;;;;;5040450;28;19920;-57
2022/10/08 06:37:41;;;;;;;;;;;;;;;;;;5038137;28;19966;-57
2022/10/08 06:40:07;;;;;;;;;;;;;;;;;;5038045;28;20381;-57
2022/10/08 06:42:33;;;;;;;;;;;;;;;;;;5041270;28;19968;-56
2022/10/08 06:44:59;;;;;;;;;;;;;;;;;;5038379;28;20287;-56
2022/10/08 06:47:25;;;;;;;;;;;;;;;;;;5041080;28;19924;-57
2022/10/08 06:49:51;;;;;;;;;;;;;;;;;;5032195;28;19967;-58
2022/10/08 06:52:17;;;;;;;;;;;;;;;;;;5032938;28;19932;-56
2022/10/08 06:54:43;;;;;;;;;;;;;;;;;;5039862;28;19925;-56
2022/10/08 06:57:09;;;;;;;;;;;;;;;;;;5039565;28;19928;-57
2022/10/08 06:59:34;;;;;;;;;;;;;;;;;;5034817;28;19921;-56
2022/10/08 07:02:00;;;;;;;;;;;;;;;;;;5042182;28;19977;-56
2022/10/08 07:04:26;;;;;;;;;;;;;;;;;;5046151;28;20492;-56
2022/10/08 07:06:52;;;;;;;;;;;;;;;;;;5044266;28;19929;-56
2022/10/08 07:09:18;;;;;;;;;;;;;;;;;;5035145;28;19932;-57
2022/10/08 07:11:44;;;;;;;;;;;;;;;;;;5041552;28;19925;-56
2022/10/08 07:14:10;;;;;;;;;;;;;;;;;;5040429;28;20299;-56
2022/10/08 07:16:36;;;;;;;;;;;;;;;;;;5034623;28;19925;-57
2022/10/08 07:19:02;;;;;;;;;;;;;;;;;;5037015;28;19925;-57
2022/10/08 07:21:28;;;;;;;;;;;;;;;;;;5030716;28;20226;-56
2022/10/08 07:23:54;;;;;;;;;;;;;;;;;;5033989;28;20020;-56
2022/10/08 07:26:20;;;;;;;;;;;;;;;;;;5034558;28;19995;-57
2022/10/08 07:28:45;;;;;;;;;;;;;;;;;;5035672;28;19954;-56
2022/10/08 07:31:11;;;;;;;;;;;;;;;;;;5038167;28;19927;-57
2022/10/08 07:33:39;;;;;;;;;;;;;;;;;;5039611;28;19924;-57
2022/10/08 07:36:05;;;;;;;;;;;;;;;;;;5036258;28;19929;-57
2022/10/08 07:38:31;;;;;;;;;;;;;;;;;;5037070;28;19920;-56
2022/10/08 07:40:57;;;;;;;;;;;;;;;;;;5033472;28;20582;-57
2022/10/08 07:43:23;;;;;;;;;;;;;;;;;;5035993;28;19932;-57
2022/10/08 07:45:49;;;;;;;;;;;;;;;;;;5035138;28;19936;-57
2022/10/08 07:48:18;;;;;;;;;;;;;;;;;;5032298;28;19924;-57
2022/10/08 07:50:44;;;;;;;0.43;0.20;;;;;;;;;;5033655;28;20500;-57
2022/10/08 07:53:10;;;;;;;0.52;0.20;;;;;;;;;;5038447;28;20045;-58
2022/10/08 07:55:36;;;;;;;0.50;0.30;;;;;;;;;;5031007;28;20111;-57
2022/10/08 07:58:02;;;;;;;0.50;0.20;;;;;;;;;;5036982;28;20044;-57
2022/10/08 08:00:28;;;;;;;0.50;0.40;;;;;;;;;;5029705;28;20547;-56
2022/10/08 08:02:56;;;;;;;1.25;0.40;;;;;;;;;;5036352;28;20045;-57
2022/10/08 08:05:22;;;;;;;2.33;0.20;;;;;;;;;;5041842;28;20103;-57
2022/10/08 08:07:48;;;;;;;1.15;0.40;;;;;;;;;;5031094;28;20040;-57
2022/10/08 08:10:14;;;;;;;1.95;0.60;;;;;;;;;;5038728;28;20040;-57
2022/10/08 08:12:40;;;;;;;2.20;0.30;;;;;;;;;;5035680;28;20033;-57
2022/10/08 08:15:06;;;;;;;2.72;0.63;;;;;;;;;;5032661;28;20493;-57
2022/10/08 08:17:34;;;;;;;2.70;0.70;;;;;;;;;;5036644;28;20045;-56
2022/10/08 08:20:00;;;;;;;1.10;0.40;;;;;;;;;;5040814;28;20044;-57
2022/10/08 08:22:26;;;;;;;1.23;0.73;;;;;;;;;;5042324;28;20102;-56
2022/10/08 08:24:52;;;;;;;1.15;0.50;;;;;;;;;;5038307;28;20064;-57
2022/10/08 08:27:18;;;;;;;3.72;0.73;;;;;;;;;;5031264;28;20061;-56
2022/10/08 08:29:44;;;;;;;1.70;0.30;;;;;;;;;;5040507;28;20044;-57
2022/10/08 08:32:10;;;;;;;2.08;0.77;;;;;;;;;;5044860;28;20141;-55
2022/10/08 08:34:35;;;;;;;0.98;0.40;;;;;;;;;;5033050;28;20466;-55
2022/10/08 08:37:01;;;;;;;0.52;0.25;;;;;;;;;;5041951;28;20110;-57
2022/10/08 08:39:29;;;;;;;0.38;0.17;;;;;;;;;;5040624;28;20041;-57
2022/10/08 08:42:08;;;;;;;1.90;0.43;;;;;;;;;;5029446;28;20123;-57
2022/10/08 08:44:40;;;;;;;1.27;0.30;;;;;;;;;;5032128;28;20504;-57
2022/10/08 08:47:10;;;;;;;0.73;0.40;;;;;;;;;;5036126;28;20102;-57
2022/10/08 08:49:36;;;;;;;0.85;0.50;;;;;;;;;;5035445;28;20437;-57
2022/10/08 08:52:03;;;;;;;0.57;0.20;;;;;;;;;;5033417;28;20129;-57
2022/10/08 08:54:29;;;;;;;1.98;0.47;;;;;;;;;;5035905;28;20091;-56
2022/10/08 08:56:59;;;;;;;2.58;0.63;;;;;;;;;;5035366;28;20076;-56
2022/10/08 08:59:26;;;;;;;3.05;0.52;;;;;;;;;;5036383;28;20149;-56
2022/10/08 09:01:55;;;;;;;1.70;0.40;;;;;;;;;;5037711;28;20473;-56
2022/10/08 09:04:24;;;;;;;2.70;0.45;;;;;;;;;;5033705;28;20038;-57
2022/10/08 09:06:51;;;;;;;4.75;1.10;;;;;;;;;;5043557;28;20036;-57
2022/10/08 09:09:33;;;;;;;5.45;1.35;;;;;;;;;;5041628;28;20051;-57
2022/10/08 09:11:59;;;;;;;3.70;0.73;;;;;;;;;;5040831;28;20504;-57
2022/10/08 09:14:48;;;;;;;1.70;0.80;;;;;;;;;;5037896;28;20052;-56
2022/10/08 09:17:18;;;;;;;2.30;0.63;;;;;;;;;;5035183;28;20140;-57
2022/10/08 09:19:45;;;;;;;2.22;0.60;;;;;;;;;;5041922;28;20194;-57
2022/10/08 09:22:25;;;;;;;1.60;0.60;;;;;;;;;;5035341;28;20048;-57
2022/10/08 09:24:54;;;;;;;1.58;0.63;;;;;;;;;;5043653;28;20044;-56
2022/10/08 09:27:20;;;;;;;2.90;0.65;;;;;;;;;;5045165;28;20041;-57
2022/10/08 09:29:46;;;;;;;4.03;0.85;;;;;;;;;;5046175;28;20047;-57
2022/10/08 09:32:16;;;;;;;5.00;0.90;;;;;;;;;;5045921;28;20049;-57
2022/10/08 09:34:43;;;;;;;3.03;0.93;;;;;;;;;;5047462;28;20076;-57
2022/10/08 09:37:23;;;;;;;1.50;0.82;;;;;;;;;;5047386;28;20148;-57
2022/10/08 09:40:06;;;;;;;3.17;0.50;;;;;;;;;;5046322;28;20037;-56
2022/10/08 09:42:32;;;;;;;1.15;0.60;;;;;;;;;;5047200;28;20049;-56
2022/10/08 09:45:02;;;;;;;3.67;0.75;;;;;;;;;;5047617;28;20140;-56
2022/10/08 09:47:32;;;;;;;4.47;0.80;;;;;;;;;;5046294;28;20059;-57
2022/10/08 09:50:05;;;;;;;2.83;0.73;;;;;;;;;;5047113;28;20048;-56
2022/10/08 09:52:31;;;;;;;3.47;0.80;;;;;;;;;;5046684;28;20052;-56
2022/10/08 09:55:08;;;;;;;5.72;1.40;;;;;;;;;;5046461;28;20597;-56
2022/10/08 09:57:39;;;;;;;2.00;0.80;;;;;;;;;;5047196;28;20049;-56
2022/10/08 10:00:05;;;;;;;2.47;0.90;;;;;;;;;;5046242;28;20053;-55
2022/10/08 10:02:32;;;;;;;2.92;0.88;;;;;;;;;;5046613;28;20500;-56
2022/10/08 10:04:59;;;;;;;4.68;1.13;;;;;;;;;;5047088;28;20902;-56
2022/10/08 10:07:35;;;;;;;2.70;0.63;;;;;;;;;;5041096;28;20042;-56
2022/10/08 10:10:02;;;;;;;4.53;0.85;;;;;;;;;;5040901;28;20102;-57
2022/10/08 10:12:39;;;;;;;2.05;0.73;;;;;;;;;;5040530;28;20041;-56
2022/10/08 10:15:10;;;;;;;4.68;1.10;;;;;;;;;;5041931;28;20057;-57
2022/10/08 10:17:39;;;;;;;4.72;1.33;;;;;;;;;;5045860;28;20033;-57
2022/10/08 10:20:09;;;;;;;7.10;1.13;;;;;;;;;;5045754;28;20451;-56
2022/10/08 10:22:40;;;;;;;4.22;1.20;;;;;;;;;;5045201;28;20595;-53
2022/10/08 10:25:16;;;;;;;1.93;0.77;;;;;;;;;;5047021;28;20547;-56
2022/10/08 10:27:45;;;;;;;3.25;0.80;;;;;;;;;;5047246;28;20037;-56
2022/10/08 10:30:22;;;;;;;4.60;0.90;;;;;;;;;;5045736;28;20048;-56
2022/10/08 10:32:50;;;;;;;4.00;1.20;;;;;;;;;;5046067;28;20059;-56
2022/10/08 10:35:19;;;;;;;7.93;1.15;;;;;;;;;;5044994;28;20045;-57
2022/10/08 10:38:02;;;;;;;5.47;1.08;;;;;;;;;;5046465;28;20127;-56
2022/10/08 10:40:34;;;;;;;3.75;1.33;;;;;;;;;;5037483;28;20502;-57
2022/10/08 10:43:06;;;;;;;3.05;1.08;;;;;;;;;;5037788;28;20071;-57
2022/10/08 10:45:35;;;;;;;2.85;1.20;;;;;;;;;;5043918;28;20553;-56
2022/10/08 10:48:02;;;;;;;5.93;1.00;;;;;;;;;;5045789;28;20045;-57
2022/10/08 10:50:37;;;;;;;7.25;1.35;;;;;;;;;;5044800;28;20063;-57
2022/10/08 10:53:06;;;;;;;8.40;1.30;;;;;;;;;;5045750;28;20055;-57
2022/10/08 10:55:35;;;;;;;6.90;1.35;;;;;;;;;;5045850;28;20149;-56
2022/10/08 10:58:19;;;;;;;5.30;1.13;;;;;;;;;;5045006;28;20037;-57
2022/10/08 11:01:04;;;;;;;2.90;0.95;;;;;;;;;;5045477;28;20052;-57
2022/10/08 11:03:50;;;;;;;2.47;0.95;;;;;;;;;;5026543;28;20179;-57
2022/10/08 11:06:28;;;;;;;4.00;1.02;;;;;;;;;;5035589;28;20049;-57
2022/10/08 11:09:06;;;;;;;1.02;0.57;;;;;;;;;;5045969;28;20037;-57
2022/10/08 11:11:35;;;;;;;3.25;1.33;;;;;;;;;;5044710;28;20556;-57
2022/10/08 11:14:05;;;;;;;2.90;1.17;;;;;;;;;;5038188;28;20129;-57
2022/10/08 11:16:42;;;;;;;5.32;0.90;;;;;;;;;;5042576;28;20077;-57
2022/10/08 11:19:37;;;;;;;4.18;1.30;;;;;;;;;;5043738;28;20140;-56
2022/10/08 11:22:12;;;;;;;3.90;1.45;;;;;;;;;;5050437;28;20605;-57
2022/10/08 11:25:04;;;;;;;4.85;1.35;;;;;;;;;;5037861;28;20049;-57
2022/10/08 11:27:30;;;;;;;;;;;;;;;;;;5041626;28;20036;-57
2022/10/08 11:29:56;;;;;;;;;;;;;;;;;;5046787;28;20375;-57
2022/10/08 11:32:22;;;;;;;;;;;;;;;;;;5041569;28;19925;-57
2022/10/08 11:34:48;;;;;;;;;;;;;;;;;;5037978;28;19931;-56
2022/10/08 11:37:14;;;;;;;;;;;;;;;;;;5044461;28;19925;-57
2022/10/08 11:39:40;;;;;;;;;;;;;;;;;;5044510;28;20259;-56
2022/10/08 11:42:05;;;;;;;;;;;;;;;;;;5044560;28;19966;-57
2022/10/08 11:44:31;;;;;;;;;;;;;;;;;;5044829;28;20884;-57
2022/10/08 11:46:57;;;;;;;;;;;;;;;;;;5044464;28;19924;-57
2022/10/08 11:49:24;;;;;;;;;;;;;;;;;;5044155;28;19970;-57
2022/10/08 11:51:50;;;;;;;;;;;;;;;;;;5036290;28;20403;-56
2022/10/08 11:54:16;;;;;;;;;;;;;;;;;;5037934;28;20370;-56
2022/10/08 11:56:42;;;;;;;;;;;;;;;;;;5036254;28;19925;-57
2022/10/08 11:59:08;;;;;;;;;;;;;;;;;;5041067;28;19924;-56
2022/10/08 12:01:34;;;;;;;;;;;;;;;;;;5042337;28;19924;-57
2022/10/08 12:04:00;;;;;;;;;;;;;;;;;;5045095;28;19920;-57
2022/10/08 12:06:27;;;;;;;1.92;0.52;;;;;;;;;;5043931;28;20055;-57
2022/10/08 12:08:58;;;;;;;2.95;0.90;;;;;;;;;;5043386;28;20052;-56
2022/10/08 12:11:39;;;;;;;1.10;0.45;;;;;;;;;;5041801;28;20068;-57
2022/10/08 12:14:11;;;;;;;4.35;0.95;;;;;;;;;;5044071;28;20523;-56
2022/10/08 12:16:55;;;;;;;3.42;1.10;;;;;;;;;;5043565;28;20053;-56
2022/10/08 12:19:34;;;;;;;5.78;1.17;;;;;;;;;;5044635;28;20057;-56
2022/10/08 12:22:01;;;;;;;3.53;0.75;;;;;;;;;;5040063;28;20497;-56
2022/10/08 12:24:36;;;;;;;5.30;1.40;;;;;;;;;;5041832;28;20048;-56
2022/10/08 12:27:17;;;;;;;3.70;0.80;;;;;;;;;;5042918;28;20040;-56
2022/10/08 12:30:02;;;;;;;0.85;0.47;;;;;;;;;;5040520;28;20087;-57
2022/10/08 12:32:30;;;;;;;0.77;0.40;;;;;;;;;;5040872;28;20115;-56
2022/10/08 12:34:56;;;;;;;0.52;0.20;;;;;;;;;;5043902;28;20033;-57
2022/10/08 12:37:22;;;;;;;2.30;0.30;;;;;;;;;;5045544;28;20472;-56
2022/10/08 12:39:49;;;;;;;0.75;0.30;;;;;;;;;;5048723;28;20377;-56
2022/10/08 12:42:20;;;;;;;1.48;0.68;;;;;;;;;;5044944;28;20495;-56
2022/10/08 12:44:52;;;;;;;1.00;0.35;;;;;;;;;;5047290;28;20052;-56
2022/10/08 12:47:26;;;;;;;2.10;1.35;;;;;;;;;;5043626;28;20499;-56
2022/10/08 12:50:03;;;;;;;3.60;0.82;;;;;;;;;;5042490;28;20090;-57
2022/10/08 12:52:33;;;;;;;3.08;0.63;;;;;;;;;;5045949;28;20041;-57
2022/10/08 12:55:00;;;;;;;1.73;0.40;;;;;;;;;;5047651;28;20045;-56
2022/10/08 12:57:26;;;;;;;0.30;0.20;;;;;;;;;;5046915;28;20053;-56
2022/10/08 12:59:53;;;;;;;1.48;0.15;;;;;;;;;;5047360;28;20053;-56
2022/10/08 13:02:38;;;;;;;1.95;0.45;;;;;;;;;;5046343;28;20530;-55
2022/10/08 13:05:05;;;;;;;0.77;0.20;;;;;;;;;;5044551;28;20041;-56
2022/10/08 13:07:31;;;;;;;;;;;;;;;;;;5046414;28;19920;-56
2022/10/08 13:09:57;;;;;;;;;;;;;;;;;;5044501;28;19920;-56
2022/10/08 13:12:23;;;;;;;;;;;;;;;;;;5039650;28;20011;-56
2022/10/08 13:14:49;;;;;;;;;;;;;;;;;;5044798;28;19981;-56
2022/10/08 13:17:15;;;;;;;;;;;;;;;;;;5040633;28;20961;-56
2022/10/08 13:19:41;;;;;;;;;;;;;;;;;;5043975;28;19920;-56
2022/10/08 13:22:07;;;;;;;;;;;;;;;;;;5042806;28;19955;-56
2022/10/08 13:24:33;;;;;;;;;;;;;;;;;;5038328;28;20296;-56
2022/10/08 13:26:59;;;;;;;;;;;;;;;;;;5042966;28;19924;-55
2022/10/08 13:29:25;;;;;;;;;;;;;;;;;;5045226;28;19920;-55
2022/10/08 13:31:51;;;;;;;;;;;;;;;;;;5044210;28;20011;-56
2022/10/08 13:34:17;;;;;;;;;;;;;;;;;;5040731;28;20071;-56
2022/10/08 13:36:43;;;;;;;;;;;;;;;;;;5040241;28;19973;-57
2022/10/08 13:39:08;;;;;;;;;;;;;;;;;;5039906;28;20441;-56
2022/10/08 13:41:34;;;;;;;;;;;;;;;;;;5039908;28;20465;-57
2022/10/08 13:44:05;;;;;;;;;;;;;;;;;;5043479;28;19920;-56
2022/10/08 13:46:31;;;;;;;1.10;0.40;;;;;;;;;;5037000;28;19974;-57
2022/10/08 13:48:57;;;;;;;1.67;0.50;;;;;;;;;;5041938;28;20041;-56
2022/10/08 13:51:23;;;;;;;1.52;0.60;;;;;;;;;;5044170;28;20585;-56
2022/10/08 13:53:49;;;;;;;1.73;0.70;;;;;;;;;;5041293;28;20064;-57
2022/10/08 13:56:17;;;;;;;3.53;1.25;;;;;;;;;;5037361;28;20045;-56
2022/10/08 13:58:42;;;;;;;1.88;0.57;;;;;;;;;;5037434;28;20632;-56
2022/10/08 14:01:08;;;;;;;1.42;0.50;;;;;;;;;;5035925;28;20065;-57
2022/10/08 14:03:34;;;;;;;2.80;0.55;;;;;;;;;;5031572;28;20049;-57
2022/10/08 14:06:00;;;;;;;3.13;0.70;;;;;;;;;;5043433;28;20045;-56
2022/10/08 14:08:28;;;;;;;2.15;0.55;;;;;;;;;;5034149;28;20456;-56
2022/10/08 14:10:57;;;;;;;1.45;0.38;;;;;;;;;;5040221;28;20036;-56
2022/10/08 14:13:24;;;;;;;0.77;0.43;;;;;;;;;;5037455;28;20049;-57
2022/10/08 14:15:50;;;;;;;1.17;0.40;;;;;;;;;;5034479;28;20079;-57
2022/10/08 14:18:16;;;;;;;0.80;0.30;;;;;;;;;;5034592;28;20634;-57
2022/10/08 14:20:42;;;;;;;2.97;0.55;;;;;;;;;;5044784;28;20047;-57
2022/10/08 14:23:10;;;;;;;0.82;0.40;;;;;;;;;;5041616;28;20045;-57
2022/10/08 14:25:36;;;;;;;1.13;0.35;;;;;;;;;;5036695;28;20048;-57
2022/10/08 14:28:02;;;;;;;4.72;0.90;;;;;;;;;;5041192;28;20128;-57
2022/10/08 14:30:28;;;;;;;1.52;0.60;;;;;;;;;;5044524;28;20166;-57
2022/10/08 14:32:54;;;;;;;2.30;0.50;;;;;;;;;;5043652;28;20049;-57
2022/10/08 14:35:20;;;;;;;4.15;1.00;;;;;;;;;;5034459;28;20041;-57
2022/10/08 14:37:46;;;;;;;1.88;0.65;;;;;;;;;;5040647;28;20045;-58
2022/10/08 14:40:16;;;;;;;3.45;0.70;;;;;;;;;;5043504;28;20376;-57
2022/10/08 14:42:42;;;;;;;1.08;0.52;;;;;;;;;;5040206;28;20132;-57
2022/10/08 14:45:09;;;;;;;3.97;0.85;;;;;;;;;;5038861;28;20140;-57
2022/10/08 14:47:35;;;;;;;2.20;0.60;;;;;;;;;;5042263;28;20049;-57
2022/10/08 14:50:01;;;;;;;1.88;0.60;;;;;;;;;;5044148;28;20571;-57
2022/10/08 14:52:27;;;;;;;3.38;0.82;;;;;;;;;;5051740;28;20068;-57
2022/10/08 14:54:53;;;;;;;3.08;0.90;;;;;;;;;;5033468;28;20078;-57
2022/10/08 14:57:19;;;;;;;1.33;0.47;;;;;;;;;;5042434;28;20122;-59
2022/10/08 14:59:45;;;;;;;1.80;0.47;;;;;;;;;;5040579;28;20056;-57
2022/10/08 15:02:11;;;;;;;1.98;0.40;;;;;;;;;;5036272;28;20136;-57
2022/10/08 15:04:37;;;;;;;1.33;0.40;;;;;;;;;;5038946;28;20072;-57
2022/10/08 15:07:03;;;;;;;0.50;0.50;;;;;;;;;;5042722;28;20110;-57
2022/10/08 15:09:30;;;;;;;3.55;0.82;;;;;;;;;;5037178;28;20524;-56
2022/10/08 15:11:56;;;;;;;1.95;0.82;;;;;;;;;;5039481;28;20053;-57
2022/10/08 15:14:23;;;;;;;1.90;0.47;;;;;;;;;;5037449;28;20371;-57
2022/10/08 15:16:49;;;;;;;1.90;0.52;;;;;;;;;;5038389;28;20187;-57
2022/10/08 15:19:15;;;;;;;2.55;0.60;;;;;;;;;;5033886;28;20396;-57
2022/10/08 15:21:42;;;;;;;2.35;0.70;;;;;;;;;;5042683;28;20438;-57
2022/10/08 15:24:08;;;;;;;3.88;0.77;;;;;;;;;;5042851;28;20049;-57
2022/10/08 15:26:34;;;;;;;1.17;0.50;;;;;;;;;;5043502;28;20044;-57
2022/10/08 15:29:00;;;;;;;2.50;0.63;;;;;;;;;;5038646;28;20045;-57
2022/10/08 15:31:29;;;;;;;3.00;0.63;;;;;;;;;;5029707;28;20049;-57